sensor_id;sensor_type;location;lat;lon;timestamp;P1;durP1;ratioP1;P2;durP2;ratioP2
65855;SDS011;52631;42.208;24.656;2022-08-25T00:01:42;19.05;;;7.72;;
65855;SDS011;52631;42.208;24.656;2022-08-25T00:04:11;20.00;;;6.63;;
65855;SDS011;52631;42.208;24.656;2022-08-25T00:06:39;19.17;;;6.68;;
65855;SDS011;52631;42.208;24.656;2022-08-25T00:09:06;21.48;;;8.27;;
65855;SDS011;52631;42.208;24.656;2022-08-25T00:11:32;19.77;;;7.53;;
65855;SDS011;52631;42.208;24.656;2022-08-25T00:14:01;19.67;;;7.55;;
65855;SDS011;52631;42.208;24.656;2022-08-25T00:16:29;13.27;;;7.80;;
65855;SDS011;52631;42.208;24.656;2022-08-25T00:18:56;17.00;;;7.32;;
65855;SDS011;52631;42.208;24.656;2022-08-25T00:21:24;17.80;;;9.00;;
65855;SDS011;52631;42.208;24.656;2022-08-25T00:23:50;19.70;;;8.32;;
65855;SDS011;52631;42.208;24.656;2022-08-25T00:26:16;16.98;;;8.10;;
65855;SDS011;52631;42.208;24.656;2022-08-25T00:28:42;20.25;;;9.57;;
65855;SDS011;52631;42.208;24.656;2022-08-25T00:31:12;21.08;;;9.93;;
65855;SDS011;52631;42.208;24.656;2022-08-25T00:36:05;26.08;;;10.32;;
65855;SDS011;52631;42.208;24.656;2022-08-25T00:38:30;26.92;;;11.05;;
65855;SDS011;52631;42.208;24.656;2022-08-25T00:40:56;24.13;;;11.70;;
65855;SDS011;52631;42.208;24.656;2022-08-25T00:43:35;25.83;;;11.43;;
65855;SDS011;52631;42.208;24.656;2022-08-25T00:48:27;22.75;;;11.02;;
65855;SDS011;52631;42.208;24.656;2022-08-25T00:50:53;21.40;;;9.77;;
65855;SDS011;52631;42.208;24.656;2022-08-25T00:53:18;20.88;;;9.95;;
65855;SDS011;52631;42.208;24.656;2022-08-25T00:55:45;18.10;;;9.68;;
65855;SDS011;52631;42.208;24.656;2022-08-25T00:58:12;20.45;;;9.93;;
65855;SDS011;52631;42.208;24.656;2022-08-25T01:00:45;20.77;;;9.70;;
65855;SDS011;52631;42.208;24.656;2022-08-25T01:03:12;23.35;;;10.38;;
65855;SDS011;52631;42.208;24.656;2022-08-25T01:05:38;21.38;;;9.73;;
65855;SDS011;52631;42.208;24.656;2022-08-25T01:08:05;21.75;;;9.63;;
65855;SDS011;52631;42.208;24.656;2022-08-25T01:10:31;17.30;;;9.75;;
65855;SDS011;52631;42.208;24.656;2022-08-25T01:13:07;17.48;;;9.73;;
65855;SDS011;52631;42.208;24.656;2022-08-25T01:15:35;23.98;;;8.80;;
65855;SDS011;52631;42.208;24.656;2022-08-25T01:18:00;16.25;;;8.68;;
65855;SDS011;52631;42.208;24.656;2022-08-25T01:20:27;19.67;;;8.57;;
65855;SDS011;52631;42.208;24.656;2022-08-25T01:22:54;23.23;;;8.95;;
65855;SDS011;52631;42.208;24.656;2022-08-25T01:28:06;18.70;;;8.20;;
65855;SDS011;52631;42.208;24.656;2022-08-25T01:30:32;17.17;;;7.93;;
65855;SDS011;52631;42.208;24.656;2022-08-25T01:33:01;14.75;;;8.02;;
65855;SDS011;52631;42.208;24.656;2022-08-25T01:35:31;23.45;;;8.35;;
65855;SDS011;52631;42.208;24.656;2022-08-25T01:37:58;19.98;;;7.88;;
65855;SDS011;52631;42.208;24.656;2022-08-25T01:40:26;21.88;;;8.00;;
65855;SDS011;52631;42.208;24.656;2022-08-25T01:45:45;24.42;;;8.93;;
65855;SDS011;52631;42.208;24.656;2022-08-25T01:48:12;15.38;;;7.95;;
65855;SDS011;52631;42.208;24.656;2022-08-25T01:50:38;18.40;;;8.52;;
65855;SDS011;52631;42.208;24.656;2022-08-25T01:53:11;21.23;;;7.38;;
65855;SDS011;52631;42.208;24.656;2022-08-25T01:55:47;16.58;;;7.72;;
65855;SDS011;52631;42.208;24.656;2022-08-25T01:58:23;16.63;;;8.18;;
65855;SDS011;52631;42.208;24.656;2022-08-25T02:00:50;14.60;;;7.95;;
65855;SDS011;52631;42.208;24.656;2022-08-25T02:03:18;16.95;;;7.95;;
65855;SDS011;52631;42.208;24.656;2022-08-25T02:05:44;13.13;;;7.00;;
65855;SDS011;52631;42.208;24.656;2022-08-25T02:08:10;17.45;;;7.93;;
65855;SDS011;52631;42.208;24.656;2022-08-25T02:10:36;16.35;;;8.05;;
65855;SDS011;52631;42.208;24.656;2022-08-25T02:13:03;17.42;;;8.18;;
65855;SDS011;52631;42.208;24.656;2022-08-25T02:15:29;21.15;;;8.45;;
65855;SDS011;52631;42.208;24.656;2022-08-25T02:17:54;16.48;;;7.95;;
65855;SDS011;52631;42.208;24.656;2022-08-25T02:20:21;15.40;;;8.10;;
65855;SDS011;52631;42.208;24.656;2022-08-25T02:22:48;17.08;;;8.40;;
65855;SDS011;52631;42.208;24.656;2022-08-25T02:25:15;15.00;;;7.00;;
65855;SDS011;52631;42.208;24.656;2022-08-25T02:27:41;11.05;;;7.07;;
65855;SDS011;52631;42.208;24.656;2022-08-25T02:30:06;12.80;;;7.05;;
65855;SDS011;52631;42.208;24.656;2022-08-25T02:32:32;10.15;;;6.18;;
65855;SDS011;52631;42.208;24.656;2022-08-25T02:34:58;18.42;;;6.93;;
65855;SDS011;52631;42.208;24.656;2022-08-25T02:37:23;13.93;;;6.68;;
65855;SDS011;52631;42.208;24.656;2022-08-25T02:39:49;12.95;;;6.55;;
65855;SDS011;52631;42.208;24.656;2022-08-25T02:42:14;11.10;;;5.68;;
65855;SDS011;52631;42.208;24.656;2022-08-25T02:44:40;10.82;;;6.28;;
65855;SDS011;52631;42.208;24.656;2022-08-25T02:47:05;10.00;;;6.47;;
65855;SDS011;52631;42.208;24.656;2022-08-25T02:49:31;9.75;;;5.68;;
65855;SDS011;52631;42.208;24.656;2022-08-25T02:51:57;13.05;;;5.97;;
65855;SDS011;52631;42.208;24.656;2022-08-25T02:54:24;12.68;;;5.10;;
65855;SDS011;52631;42.208;24.656;2022-08-25T02:56:50;11.27;;;5.28;;
65855;SDS011;52631;42.208;24.656;2022-08-25T02:59:15;10.70;;;5.00;;
65855;SDS011;52631;42.208;24.656;2022-08-25T03:01:42;17.65;;;5.25;;
65855;SDS011;52631;42.208;24.656;2022-08-25T03:04:08;12.27;;;4.93;;
65855;SDS011;52631;42.208;24.656;2022-08-25T03:06:33;11.93;;;5.20;;
65855;SDS011;52631;42.208;24.656;2022-08-25T03:08:59;9.05;;;5.00;;
65855;SDS011;52631;42.208;24.656;2022-08-25T03:11:25;9.82;;;4.78;;
65855;SDS011;52631;42.208;24.656;2022-08-25T03:13:51;13.15;;;5.22;;
65855;SDS011;52631;42.208;24.656;2022-08-25T03:16:18;11.65;;;6.15;;
65855;SDS011;52631;42.208;24.656;2022-08-25T03:18:44;10.48;;;5.78;;
65855;SDS011;52631;42.208;24.656;2022-08-25T03:21:10;11.57;;;5.70;;
65855;SDS011;52631;42.208;24.656;2022-08-25T03:23:36;14.85;;;5.90;;
65855;SDS011;52631;42.208;24.656;2022-08-25T03:26:02;12.20;;;6.75;;
65855;SDS011;52631;42.208;24.656;2022-08-25T03:28:46;16.88;;;7.85;;
65855;SDS011;52631;42.208;24.656;2022-08-25T03:31:12;19.77;;;7.50;;
65855;SDS011;52631;42.208;24.656;2022-08-25T03:33:37;14.57;;;8.55;;
65855;SDS011;52631;42.208;24.656;2022-08-25T03:36:04;18.33;;;7.47;;
65855;SDS011;52631;42.208;24.656;2022-08-25T03:38:30;19.83;;;8.50;;
65855;SDS011;52631;42.208;24.656;2022-08-25T03:40:55;18.95;;;7.80;;
65855;SDS011;52631;42.208;24.656;2022-08-25T03:43:21;13.15;;;7.90;;
65855;SDS011;52631;42.208;24.656;2022-08-25T03:45:47;16.33;;;8.10;;
65855;SDS011;52631;42.208;24.656;2022-08-25T03:48:13;17.73;;;8.52;;
65855;SDS011;52631;42.208;24.656;2022-08-25T03:50:45;19.08;;;8.82;;
65855;SDS011;52631;42.208;24.656;2022-08-25T03:53:14;17.88;;;8.93;;
65855;SDS011;52631;42.208;24.656;2022-08-25T03:55:39;14.95;;;7.70;;
65855;SDS011;52631;42.208;24.656;2022-08-25T03:58:05;15.85;;;8.27;;
65855;SDS011;52631;42.208;24.656;2022-08-25T04:00:31;17.88;;;8.82;;
65855;SDS011;52631;42.208;24.656;2022-08-25T04:02:57;17.60;;;8.00;;
65855;SDS011;52631;42.208;24.656;2022-08-25T04:05:22;18.90;;;8.93;;
65855;SDS011;52631;42.208;24.656;2022-08-25T04:07:48;16.73;;;9.23;;
65855;SDS011;52631;42.208;24.656;2022-08-25T04:10:13;18.05;;;8.98;;
65855;SDS011;52631;42.208;24.656;2022-08-25T04:12:39;13.32;;;6.80;;
65855;SDS011;52631;42.208;24.656;2022-08-25T04:15:05;15.95;;;7.03;;
65855;SDS011;52631;42.208;24.656;2022-08-25T04:17:31;11.93;;;6.78;;
65855;SDS011;52631;42.208;24.656;2022-08-25T04:19:57;11.10;;;5.95;;
65855;SDS011;52631;42.208;24.656;2022-08-25T04:22:23;13.65;;;5.30;;
65855;SDS011;52631;42.208;24.656;2022-08-25T04:24:49;19.27;;;7.32;;
65855;SDS011;52631;42.208;24.656;2022-08-25T04:27:14;13.70;;;6.18;;
65855;SDS011;52631;42.208;24.656;2022-08-25T04:29:40;8.98;;;6.45;;
65855;SDS011;52631;42.208;24.656;2022-08-25T04:32:05;13.10;;;5.75;;
65855;SDS011;52631;42.208;24.656;2022-08-25T04:34:32;10.55;;;5.45;;
65855;SDS011;52631;42.208;24.656;2022-08-25T04:36:59;12.73;;;5.90;;
65855;SDS011;52631;42.208;24.656;2022-08-25T04:39:26;11.00;;;5.60;;
65855;SDS011;52631;42.208;24.656;2022-08-25T04:41:52;11.65;;;5.95;;
65855;SDS011;52631;42.208;24.656;2022-08-25T04:44:18;11.13;;;5.93;;
65855;SDS011;52631;42.208;24.656;2022-08-25T04:46:43;12.20;;;6.60;;
65855;SDS011;52631;42.208;24.656;2022-08-25T04:49:09;9.55;;;5.50;;
65855;SDS011;52631;42.208;24.656;2022-08-25T04:51:38;13.95;;;5.97;;
65855;SDS011;52631;42.208;24.656;2022-08-25T04:54:07;15.25;;;6.63;;
65855;SDS011;52631;42.208;24.656;2022-08-25T04:56:34;10.05;;;5.72;;
65855;SDS011;52631;42.208;24.656;2022-08-25T04:59:01;8.73;;;4.72;;
65855;SDS011;52631;42.208;24.656;2022-08-25T05:01:32;11.35;;;5.10;;
65855;SDS011;52631;42.208;24.656;2022-08-25T05:03:59;11.57;;;5.03;;
65855;SDS011;52631;42.208;24.656;2022-08-25T05:06:28;10.43;;;4.50;;
65855;SDS011;52631;42.208;24.656;2022-08-25T05:08:54;9.93;;;4.18;;
65855;SDS011;52631;42.208;24.656;2022-08-25T05:11:21;8.93;;;4.10;;
65855;SDS011;52631;42.208;24.656;2022-08-25T05:13:48;11.15;;;4.28;;
65855;SDS011;52631;42.208;24.656;2022-08-25T05:16:14;9.02;;;4.60;;
65855;SDS011;52631;42.208;24.656;2022-08-25T05:18:40;8.20;;;4.05;;
65855;SDS011;52631;42.208;24.656;2022-08-25T05:21:07;10.18;;;4.15;;
65855;SDS011;52631;42.208;24.656;2022-08-25T05:23:39;9.52;;;4.43;;
65855;SDS011;52631;42.208;24.656;2022-08-25T05:26:09;13.88;;;4.90;;
65855;SDS011;52631;42.208;24.656;2022-08-25T05:28:37;10.48;;;4.90;;
65855;SDS011;52631;42.208;24.656;2022-08-25T05:31:05;12.43;;;4.35;;
65855;SDS011;52631;42.208;24.656;2022-08-25T05:33:32;10.27;;;4.82;;
65855;SDS011;52631;42.208;24.656;2022-08-25T05:35:58;9.63;;;4.68;;
65855;SDS011;52631;42.208;24.656;2022-08-25T05:38:24;8.90;;;4.32;;
65855;SDS011;52631;42.208;24.656;2022-08-25T05:41:00;12.35;;;4.95;;
65855;SDS011;52631;42.208;24.656;2022-08-25T05:43:27;8.45;;;4.50;;
65855;SDS011;52631;42.208;24.656;2022-08-25T05:45:53;11.13;;;5.03;;
65855;SDS011;52631;42.208;24.656;2022-08-25T05:48:19;10.93;;;6.13;;
65855;SDS011;52631;42.208;24.656;2022-08-25T05:50:58;12.18;;;5.53;;
65855;SDS011;52631;42.208;24.656;2022-08-25T05:53:25;9.60;;;5.22;;
65855;SDS011;52631;42.208;24.656;2022-08-25T05:55:52;13.05;;;6.10;;
65855;SDS011;52631;42.208;24.656;2022-08-25T05:58:18;12.98;;;6.55;;
65855;SDS011;52631;42.208;24.656;2022-08-25T06:00:44;12.98;;;7.05;;
65855;SDS011;52631;42.208;24.656;2022-08-25T06:03:10;11.48;;;6.90;;
65855;SDS011;52631;42.208;24.656;2022-08-25T06:05:35;16.40;;;7.80;;
65855;SDS011;52631;42.208;24.656;2022-08-25T06:08:01;12.77;;;7.53;;
65855;SDS011;52631;42.208;24.656;2022-08-25T06:10:27;15.75;;;7.75;;
65855;SDS011;52631;42.208;24.656;2022-08-25T06:12:53;18.38;;;8.15;;
65855;SDS011;52631;42.208;24.656;2022-08-25T06:15:19;16.67;;;8.68;;
65855;SDS011;52631;42.208;24.656;2022-08-25T06:17:46;20.55;;;8.40;;
65855;SDS011;52631;42.208;24.656;2022-08-25T06:20:14;18.60;;;9.02;;
65855;SDS011;52631;42.208;24.656;2022-08-25T06:22:41;18.67;;;8.63;;
65855;SDS011;52631;42.208;24.656;2022-08-25T06:25:07;16.80;;;9.07;;
65855;SDS011;52631;42.208;24.656;2022-08-25T06:27:33;16.10;;;10.00;;
65855;SDS011;52631;42.208;24.656;2022-08-25T06:29:59;15.82;;;9.10;;
65855;SDS011;52631;42.208;24.656;2022-08-25T06:32:29;17.02;;;9.43;;
65855;SDS011;52631;42.208;24.656;2022-08-25T06:34:56;15.02;;;9.45;;
65855;SDS011;52631;42.208;24.656;2022-08-25T06:37:23;17.92;;;9.80;;
65855;SDS011;52631;42.208;24.656;2022-08-25T06:39:48;15.85;;;9.50;;
65855;SDS011;52631;42.208;24.656;2022-08-25T06:42:14;21.15;;;10.93;;
65855;SDS011;52631;42.208;24.656;2022-08-25T06:44:40;18.05;;;10.07;;
65855;SDS011;52631;42.208;24.656;2022-08-25T06:47:05;17.55;;;9.73;;
65855;SDS011;52631;42.208;24.656;2022-08-25T06:49:31;21.33;;;9.35;;
65855;SDS011;52631;42.208;24.656;2022-08-25T06:51:56;23.92;;;11.70;;
65855;SDS011;52631;42.208;24.656;2022-08-25T06:54:23;20.15;;;11.02;;
65855;SDS011;52631;42.208;24.656;2022-08-25T06:56:49;21.83;;;10.55;;
65855;SDS011;52631;42.208;24.656;2022-08-25T06:59:15;24.38;;;10.38;;
65855;SDS011;52631;42.208;24.656;2022-08-25T07:01:41;19.60;;;10.75;;
65855;SDS011;52631;42.208;24.656;2022-08-25T07:04:07;28.42;;;11.52;;
65855;SDS011;52631;42.208;24.656;2022-08-25T07:06:33;19.40;;;10.15;;
65855;SDS011;52631;42.208;24.656;2022-08-25T07:09:03;20.33;;;11.25;;
65855;SDS011;52631;42.208;24.656;2022-08-25T07:11:29;21.42;;;10.70;;
65855;SDS011;52631;42.208;24.656;2022-08-25T07:13:58;23.92;;;10.52;;
65855;SDS011;52631;42.208;24.656;2022-08-25T07:16:27;18.75;;;10.10;;
65855;SDS011;52631;42.208;24.656;2022-08-25T07:18:52;19.90;;;10.18;;
65855;SDS011;52631;42.208;24.656;2022-08-25T07:21:20;19.48;;;10.68;;
65855;SDS011;52631;42.208;24.656;2022-08-25T07:23:47;22.55;;;10.45;;
65855;SDS011;52631;42.208;24.656;2022-08-25T07:26:14;22.67;;;11.57;;
65855;SDS011;52631;42.208;24.656;2022-08-25T07:28:41;29.73;;;11.93;;
65855;SDS011;52631;42.208;24.656;2022-08-25T07:31:07;30.52;;;11.73;;
65855;SDS011;52631;42.208;24.656;2022-08-25T07:33:32;20.52;;;10.82;;
65855;SDS011;52631;42.208;24.656;2022-08-25T07:35:58;27.33;;;11.20;;
65855;SDS011;52631;42.208;24.656;2022-08-25T07:38:24;25.40;;;10.77;;
65855;SDS011;52631;42.208;24.656;2022-08-25T07:40:50;18.42;;;9.68;;
65855;SDS011;52631;42.208;24.656;2022-08-25T07:43:20;19.90;;;10.73;;
65855;SDS011;52631;42.208;24.656;2022-08-25T07:45:46;28.73;;;11.00;;
65855;SDS011;52631;42.208;24.656;2022-08-25T07:48:12;18.58;;;10.65;;
65855;SDS011;52631;42.208;24.656;2022-08-25T07:50:39;30.13;;;11.50;;
65855;SDS011;52631;42.208;24.656;2022-08-25T07:53:07;26.02;;;10.90;;
65855;SDS011;52631;42.208;24.656;2022-08-25T07:55:33;22.98;;;10.93;;
65855;SDS011;52631;42.208;24.656;2022-08-25T07:58:01;23.40;;;10.05;;
65855;SDS011;52631;42.208;24.656;2022-08-25T08:00:27;24.58;;;11.77;;
65855;SDS011;52631;42.208;24.656;2022-08-25T08:02:58;26.17;;;10.18;;
65855;SDS011;52631;42.208;24.656;2022-08-25T08:05:24;21.98;;;10.27;;
65855;SDS011;52631;42.208;24.656;2022-08-25T08:07:51;21.60;;;9.77;;
65855;SDS011;52631;42.208;24.656;2022-08-25T08:10:17;18.77;;;9.90;;
65855;SDS011;52631;42.208;24.656;2022-08-25T08:12:44;27.98;;;9.88;;
65855;SDS011;52631;42.208;24.656;2022-08-25T08:15:10;23.42;;;9.43;;
65855;SDS011;52631;42.208;24.656;2022-08-25T08:17:35;23.23;;;9.38;;
65855;SDS011;52631;42.208;24.656;2022-08-25T08:20:02;24.83;;;6.13;;
65855;SDS011;52631;42.208;24.656;2022-08-25T08:22:32;23.52;;;5.55;;
65855;SDS011;52631;42.208;24.656;2022-08-25T08:24:57;22.88;;;5.28;;
65855;SDS011;52631;42.208;24.656;2022-08-25T08:27:23;22.92;;;5.45;;
65855;SDS011;52631;42.208;24.656;2022-08-25T08:29:48;22.88;;;6.32;;
65855;SDS011;52631;42.208;24.656;2022-08-25T08:32:14;25.30;;;5.57;;
65855;SDS011;52631;42.208;24.656;2022-08-25T08:34:41;18.83;;;5.18;;
65855;SDS011;52631;42.208;24.656;2022-08-25T08:37:07;24.63;;;5.70;;
65855;SDS011;52631;42.208;24.656;2022-08-25T08:39:33;26.23;;;7.60;;
65855;SDS011;52631;42.208;24.656;2022-08-25T08:52:46;26.58;;;7.57;;
65855;SDS011;52631;42.208;24.656;2022-08-25T08:57:57;20.45;;;8.10;;
65855;SDS011;52631;42.208;24.656;2022-08-25T09:00:26;22.83;;;7.28;;
65855;SDS011;52631;42.208;24.656;2022-08-25T09:03:04;26.40;;;8.07;;
65855;SDS011;52631;42.208;24.656;2022-08-25T09:05:35;19.85;;;7.13;;
65855;SDS011;52631;42.208;24.656;2022-08-25T09:08:09;33.10;;;8.10;;
65855;SDS011;52631;42.208;24.656;2022-08-25T09:10:43;33.05;;;8.18;;
65855;SDS011;52631;42.208;24.656;2022-08-25T09:16:23;23.85;;;7.20;;
65855;SDS011;52631;42.208;24.656;2022-08-25T09:27:17;24.00;;;7.00;;
65855;SDS011;52631;42.208;24.656;2022-08-25T09:32:36;21.30;;;6.90;;
65855;SDS011;52631;42.208;24.656;2022-08-25T09:35:14;31.35;;;7.53;;
65855;SDS011;52631;42.208;24.656;2022-08-25T09:37:54;22.10;;;6.32;;
65855;SDS011;52631;42.208;24.656;2022-08-25T09:40:29;21.30;;;6.80;;
65855;SDS011;52631;42.208;24.656;2022-08-25T09:42:57;23.23;;;6.38;;
65855;SDS011;52631;42.208;24.656;2022-08-25T09:48:00;28.92;;;7.22;;
65855;SDS011;52631;42.208;24.656;2022-08-25T09:50:29;26.73;;;6.55;;
65855;SDS011;52631;42.208;24.656;2022-08-25T09:52:56;27.27;;;7.10;;
65855;SDS011;52631;42.208;24.656;2022-08-25T09:55:35;28.27;;;6.30;;
65855;SDS011;52631;42.208;24.656;2022-08-25T09:58:12;26.02;;;6.95;;
65855;SDS011;52631;42.208;24.656;2022-08-25T10:00:44;23.40;;;6.43;;
65855;SDS011;52631;42.208;24.656;2022-08-25T10:03:25;18.15;;;5.90;;
65855;SDS011;52631;42.208;24.656;2022-08-25T10:08:31;24.63;;;6.63;;
65855;SDS011;52631;42.208;24.656;2022-08-25T10:11:07;30.42;;;6.35;;
65855;SDS011;52631;42.208;24.656;2022-08-25T10:13:36;27.13;;;5.43;;
65855;SDS011;52631;42.208;24.656;2022-08-25T10:16:11;15.35;;;4.75;;
65855;SDS011;52631;42.208;24.656;2022-08-25T10:18:58;24.02;;;6.22;;
65855;SDS011;52631;42.208;24.656;2022-08-25T10:21:31;37.08;;;6.30;;
65855;SDS011;52631;42.208;24.656;2022-08-25T10:23:57;22.95;;;5.80;;
65855;SDS011;52631;42.208;24.656;2022-08-25T10:26:47;28.70;;;5.22;;
65855;SDS011;52631;42.208;24.656;2022-08-25T10:40:20;27.45;;;5.40;;
65855;SDS011;52631;42.208;24.656;2022-08-25T10:45:21;30.45;;;5.00;;
65855;SDS011;52631;42.208;24.656;2022-08-25T10:48:14;24.90;;;5.47;;
65855;SDS011;52631;42.208;24.656;2022-08-25T10:50:55;24.70;;;5.55;;
65855;SDS011;52631;42.208;24.656;2022-08-25T10:57:08;30.65;;;5.22;;
65855;SDS011;52631;42.208;24.656;2022-08-25T11:00:08;24.17;;;4.57;;
65855;SDS011;52631;42.208;24.656;2022-08-25T11:07:41;18.25;;;4.75;;
65855;SDS011;52631;42.208;24.656;2022-08-25T11:10:12;18.10;;;4.85;;
65855;SDS011;52631;42.208;24.656;2022-08-25T11:12:44;19.73;;;4.70;;
65855;SDS011;52631;42.208;24.656;2022-08-25T11:15:20;16.38;;;5.30;;
65855;SDS011;52631;42.208;24.656;2022-08-25T11:18:00;19.52;;;5.00;;
65855;SDS011;52631;42.208;24.656;2022-08-25T11:20:50;20.98;;;4.70;;
65855;SDS011;52631;42.208;24.656;2022-08-25T11:23:18;22.70;;;5.15;;
65855;SDS011;52631;42.208;24.656;2022-08-25T11:26:07;18.50;;;4.28;;
65855;SDS011;52631;42.208;24.656;2022-08-25T11:31:07;20.42;;;4.50;;
65855;SDS011;52631;42.208;24.656;2022-08-25T11:33:33;23.30;;;5.50;;
65855;SDS011;52631;42.208;24.656;2022-08-25T11:57:38;19.05;;;3.72;;
65855;SDS011;52631;42.208;24.656;2022-08-25T12:10:21;23.35;;;4.70;;
65855;SDS011;52631;42.208;24.656;2022-08-25T12:31:44;23.38;;;5.43;;
65855;SDS011;52631;42.208;24.656;2022-08-25T12:36:58;16.42;;;5.10;;
65855;SDS011;52631;42.208;24.656;2022-08-25T12:39:29;20.88;;;4.70;;
65855;SDS011;52631;42.208;24.656;2022-08-25T12:42:06;30.00;;;5.28;;
65855;SDS011;52631;42.208;24.656;2022-08-25T12:44:47;19.42;;;4.82;;
65855;SDS011;52631;42.208;24.656;2022-08-25T12:49:51;25.88;;;5.03;;
65855;SDS011;52631;42.208;24.656;2022-08-25T12:52:20;23.95;;;4.65;;
65855;SDS011;52631;42.208;24.656;2022-08-25T12:54:54;24.25;;;4.80;;
65855;SDS011;52631;42.208;24.656;2022-08-25T12:57:27;24.08;;;5.03;;
65855;SDS011;52631;42.208;24.656;2022-08-25T13:00:13;17.90;;;4.55;;
65855;SDS011;52631;42.208;24.656;2022-08-25T13:13:09;17.27;;;4.70;;
65855;SDS011;52631;42.208;24.656;2022-08-25T13:15:42;27.63;;;5.55;;
65855;SDS011;52631;42.208;24.656;2022-08-25T13:18:29;35.53;;;5.53;;
65855;SDS011;52631;42.208;24.656;2022-08-25T13:23:50;23.88;;;5.65;;
65855;SDS011;52631;42.208;24.656;2022-08-25T13:26:22;15.70;;;4.28;;
65855;SDS011;52631;42.208;24.656;2022-08-25T13:31:58;19.30;;;4.40;;
65855;SDS011;52631;42.208;24.656;2022-08-25T13:34:25;14.35;;;3.83;;
65855;SDS011;52631;42.208;24.656;2022-08-25T13:36:52;25.08;;;5.35;;
65855;SDS011;52631;42.208;24.656;2022-08-25T13:39:36;12.90;;;4.43;;
65855;SDS011;52631;42.208;24.656;2022-08-25T13:42:03;18.67;;;4.65;;
65855;SDS011;52631;42.208;24.656;2022-08-25T13:44:34;19.13;;;5.03;;
65855;SDS011;52631;42.208;24.656;2022-08-25T13:47:04;17.15;;;4.03;;
65855;SDS011;52631;42.208;24.656;2022-08-25T13:49:38;19.33;;;5.15;;
65855;SDS011;52631;42.208;24.656;2022-08-25T13:52:05;15.57;;;4.38;;
65855;SDS011;52631;42.208;24.656;2022-08-25T13:54:36;11.02;;;3.75;;
65855;SDS011;52631;42.208;24.656;2022-08-25T13:59:48;14.73;;;3.85;;
65855;SDS011;52631;42.208;24.656;2022-08-25T14:02:37;14.90;;;4.40;;
65855;SDS011;52631;42.208;24.656;2022-08-25T14:05:07;16.00;;;4.25;;
65855;SDS011;52631;42.208;24.656;2022-08-25T14:07:33;10.70;;;4.28;;
65855;SDS011;52631;42.208;24.656;2022-08-25T14:10:06;14.93;;;4.28;;
65855;SDS011;52631;42.208;24.656;2022-08-25T14:15:04;15.05;;;4.78;;
65855;SDS011;52631;42.208;24.656;2022-08-25T14:17:30;12.32;;;4.30;;
65855;SDS011;52631;42.208;24.656;2022-08-25T14:19:56;11.82;;;3.90;;
65855;SDS011;52631;42.208;24.656;2022-08-25T14:22:22;18.30;;;4.47;;
65855;SDS011;52631;42.208;24.656;2022-08-25T14:24:47;20.80;;;5.07;;
65855;SDS011;52631;42.208;24.656;2022-08-25T14:27:13;18.73;;;4.72;;
65855;SDS011;52631;42.208;24.656;2022-08-25T14:29:38;12.10;;;4.35;;
65855;SDS011;52631;42.208;24.656;2022-08-25T14:32:04;18.08;;;4.90;;
65855;SDS011;52631;42.208;24.656;2022-08-25T14:34:31;15.55;;;5.75;;
65855;SDS011;52631;42.208;24.656;2022-08-25T14:39:25;13.15;;;4.60;;
65855;SDS011;52631;42.208;24.656;2022-08-25T14:41:51;15.00;;;4.68;;
65855;SDS011;52631;42.208;24.656;2022-08-25T14:44:18;19.15;;;5.03;;
65855;SDS011;52631;42.208;24.656;2022-08-25T14:46:47;20.40;;;5.30;;
65855;SDS011;52631;42.208;24.656;2022-08-25T14:49:21;25.55;;;5.90;;
65855;SDS011;52631;42.208;24.656;2022-08-25T14:51:51;26.63;;;5.53;;
65855;SDS011;52631;42.208;24.656;2022-08-25T14:54:17;17.75;;;5.18;;
65855;SDS011;52631;42.208;24.656;2022-08-25T14:56:45;21.05;;;5.60;;
65855;SDS011;52631;42.208;24.656;2022-08-25T14:59:12;23.15;;;4.88;;
65855;SDS011;52631;42.208;24.656;2022-08-25T15:01:37;14.93;;;4.32;;
65855;SDS011;52631;42.208;24.656;2022-08-25T15:04:10;18.55;;;4.68;;
65855;SDS011;52631;42.208;24.656;2022-08-25T15:06:37;21.50;;;4.93;;
65855;SDS011;52631;42.208;24.656;2022-08-25T15:09:04;19.42;;;5.35;;
65855;SDS011;52631;42.208;24.656;2022-08-25T15:11:35;24.63;;;5.28;;
65855;SDS011;52631;42.208;24.656;2022-08-25T15:14:08;27.10;;;5.97;;
65855;SDS011;52631;42.208;24.656;2022-08-25T15:16:36;25.23;;;5.68;;
65855;SDS011;52631;42.208;24.656;2022-08-25T15:19:05;21.00;;;5.15;;
65855;SDS011;52631;42.208;24.656;2022-08-25T15:21:31;21.30;;;4.90;;
65855;SDS011;52631;42.208;24.656;2022-08-25T15:23:57;18.35;;;5.07;;
65855;SDS011;52631;42.208;24.656;2022-08-25T15:26:24;17.10;;;4.50;;
65855;SDS011;52631;42.208;24.656;2022-08-25T15:28:49;16.40;;;5.05;;
65855;SDS011;52631;42.208;24.656;2022-08-25T15:31:15;18.35;;;5.03;;
65855;SDS011;52631;42.208;24.656;2022-08-25T15:33:44;17.85;;;4.70;;
65855;SDS011;52631;42.208;24.656;2022-08-25T15:36:10;15.43;;;4.50;;
65855;SDS011;52631;42.208;24.656;2022-08-25T15:38:38;17.30;;;5.35;;
65855;SDS011;52631;42.208;24.656;2022-08-25T15:41:05;15.45;;;4.32;;
65855;SDS011;52631;42.208;24.656;2022-08-25T15:43:32;16.02;;;5.20;;
65855;SDS011;52631;42.208;24.656;2022-08-25T15:45:57;15.23;;;4.97;;
65855;SDS011;52631;42.208;24.656;2022-08-25T15:48:23;15.80;;;4.57;;
65855;SDS011;52631;42.208;24.656;2022-08-25T15:50:51;14.98;;;4.72;;
65855;SDS011;52631;42.208;24.656;2022-08-25T15:55:45;17.13;;;5.53;;
65855;SDS011;52631;42.208;24.656;2022-08-25T15:58:10;19.42;;;5.18;;
65855;SDS011;52631;42.208;24.656;2022-08-25T16:00:36;19.63;;;5.35;;
65855;SDS011;52631;42.208;24.656;2022-08-25T16:03:01;20.40;;;5.00;;
65855;SDS011;52631;42.208;24.656;2022-08-25T16:05:27;13.13;;;4.93;;
65855;SDS011;52631;42.208;24.656;2022-08-25T16:07:53;14.05;;;4.47;;
65855;SDS011;52631;42.208;24.656;2022-08-25T16:10:18;13.45;;;4.80;;
65855;SDS011;52631;42.208;24.656;2022-08-25T16:12:45;14.80;;;4.22;;
65855;SDS011;52631;42.208;24.656;2022-08-25T16:15:10;16.30;;;4.95;;
65855;SDS011;52631;42.208;24.656;2022-08-25T16:17:36;15.63;;;4.90;;
65855;SDS011;52631;42.208;24.656;2022-08-25T16:20:02;15.35;;;4.47;;
65855;SDS011;52631;42.208;24.656;2022-08-25T16:22:31;14.95;;;4.57;;
65855;SDS011;52631;42.208;24.656;2022-08-25T16:24:56;16.00;;;5.00;;
65855;SDS011;52631;42.208;24.656;2022-08-25T16:27:22;17.52;;;5.60;;
65855;SDS011;52631;42.208;24.656;2022-08-25T16:29:48;14.20;;;4.65;;
65855;SDS011;52631;42.208;24.656;2022-08-25T16:32:13;17.65;;;4.75;;
65855;SDS011;52631;42.208;24.656;2022-08-25T16:34:39;15.52;;;5.00;;
65855;SDS011;52631;42.208;24.656;2022-08-25T16:37:05;12.45;;;5.15;;
65855;SDS011;52631;42.208;24.656;2022-08-25T16:39:32;18.48;;;5.03;;
65855;SDS011;52631;42.208;24.656;2022-08-25T16:41:57;17.92;;;4.72;;
65855;SDS011;52631;42.208;24.656;2022-08-25T16:44:23;10.07;;;4.57;;
65855;SDS011;52631;42.208;24.656;2022-08-25T16:46:49;17.73;;;5.13;;
65855;SDS011;52631;42.208;24.656;2022-08-25T16:49:18;21.42;;;5.30;;
65855;SDS011;52631;42.208;24.656;2022-08-25T16:51:44;12.40;;;3.72;;
65855;SDS011;52631;42.208;24.656;2022-08-25T16:54:12;18.80;;;4.70;;
65855;SDS011;52631;42.208;24.656;2022-08-25T16:56:56;14.07;;;4.35;;
65855;SDS011;52631;42.208;24.656;2022-08-25T16:59:22;14.25;;;4.18;;